createdAt,value
2023-04-27T00:02:11.488Z,58.50
2023-04-27T00:04:51.012Z,58.60
2023-04-27T00:07:28.090Z,58.50
2023-04-27T00:10:05.134Z,58.70
2023-04-27T00:12:46.519Z,58.70
2023-04-27T00:15:19.388Z,58.40
2023-04-27T00:17:50.262Z,58.50
2023-04-27T00:20:31.492Z,58.30
2023-04-27T00:23:14.597Z,58.10
2023-04-27T00:25:54.923Z,58.00
2023-04-27T00:28:54.192Z,58.00
2023-04-27T00:31:32.525Z,58.10
2023-04-27T00:34:07.511Z,57.90
2023-04-27T00:36:48.862Z,58.10
2023-04-27T00:39:31.382Z,58.20
2023-04-27T00:42:19.726Z,58.10
2023-04-27T00:44:56.329Z,58.30
2023-04-27T00:47:34.790Z,58.20
2023-04-27T00:50:18.830Z,58.30
2023-04-27T00:53:03.974Z,58.20
2023-04-27T00:55:47.938Z,58.30
2023-04-27T00:58:22.183Z,58.20
2023-04-27T01:01:00.042Z,58.10
2023-04-27T01:03:52.379Z,57.90
2023-04-27T01:07:07.812Z,57.80
2023-04-27T01:09:50.738Z,58.00
2023-04-27T01:15:34.196Z,58.00
2023-04-27T01:18:30.764Z,58.00
2023-04-27T01:21:34.223Z,58.00
2023-04-27T01:24:25.978Z,58.10
2023-04-27T01:27:15.894Z,58.10
2023-04-27T01:30:25.794Z,58.20
2023-04-27T01:33:37.108Z,58.00
2023-04-27T01:36:08.154Z,58.00
2023-04-27T01:38:41.355Z,58.10
2023-04-27T01:41:12.534Z,58.10
2023-04-27T01:43:54.092Z,58.00
2023-04-27T01:46:28.950Z,58.10
2023-04-27T01:49:12.001Z,58.10
2023-04-27T01:51:57.322Z,58.20
2023-04-27T01:57:57.170Z,58.20
2023-04-27T02:01:02.302Z,58.10
2023-04-27T02:03:40.631Z,57.90
2023-04-27T02:06:40.941Z,58.10
2023-04-27T02:09:37.820Z,57.80
2023-04-27T02:12:25.268Z,58.00
2023-04-27T02:15:06.124Z,57.90
2023-04-27T02:20:43.011Z,57.90
2023-04-27T02:23:11.820Z,57.50
2023-04-27T02:25:46.868Z,57.30
2023-04-27T02:28:17.016Z,57.40
2023-04-27T02:30:55.696Z,57.60
2023-04-27T02:33:31.826Z,57.40
2023-04-27T02:36:29.407Z,57.60
2023-04-27T02:39:08.032Z,57.70
2023-04-27T02:41:43.471Z,57.70
2023-04-27T02:44:23.454Z,57.70
2023-04-27T02:46:59.571Z,57.90
2023-04-27T02:49:42.892Z,58.00
2023-04-27T02:52:27.628Z,57.90
2023-04-27T02:55:04.100Z,58.00
2023-04-27T02:57:38.525Z,58.00
2023-04-27T03:00:07.891Z,58.10
2023-04-27T03:02:49.259Z,58.10
2023-04-27T03:05:24.933Z,58.10
2023-04-27T03:07:56.239Z,58.10
2023-04-27T03:10:40.539Z,58.30
2023-04-27T03:13:36.298Z,58.50
2023-04-27T03:16:32.463Z,58.50
2023-04-27T03:19:06.341Z,58.60
2023-04-27T03:22:16.314Z,58.80
2023-04-27T03:25:11.466Z,58.90
2023-04-27T03:30:41.907Z,58.80
2023-04-27T03:33:14.924Z,59.00
2023-04-27T03:35:59.510Z,59.40
2023-04-27T03:38:40.974Z,59.90
2023-04-27T03:41:22.404Z,59.70
2023-04-27T03:43:51.250Z,59.70
2023-04-27T03:46:29.309Z,59.90
2023-04-27T03:49:17.388Z,60.20
2023-04-27T03:52:01.284Z,60.10
2023-04-27T03:54:55.435Z,60.30
2023-04-27T03:57:36.794Z,59.90
2023-04-27T04:00:20.418Z,60.00
2023-04-27T04:03:03.572Z,60.00
2023-04-27T04:05:49.209Z,60.20
2023-04-27T04:08:24.074Z,60.50
2023-04-27T04:11:01.354Z,60.70
2023-04-27T04:13:38.128Z,60.90
2023-04-27T04:16:18.441Z,60.80
2023-04-27T04:19:05.118Z,60.90
2023-04-27T04:21:56.472Z,61.00
2023-04-27T04:24:27.662Z,61.30
2023-04-27T04:27:06.331Z,61.10
2023-04-27T04:29:46.364Z,61.30
2023-04-27T04:32:22.601Z,61.20
2023-04-27T04:34:57.819Z,61.20
2023-04-27T04:41:01.702Z,61.30
2023-04-27T04:43:36.105Z,60.70
2023-04-27T04:46:23.958Z,61.10
2023-04-27T04:49:08.677Z,61.10
2023-04-27T04:52:00.236Z,60.90
2023-04-27T04:58:59.556Z,60.90
2023-04-27T05:02:10.722Z,61.30
2023-04-27T05:04:46.972Z,61.80
2023-04-27T05:11:09.078Z,61.20
2023-04-27T05:14:08.318Z,61.30
2023-04-27T05:16:56.901Z,61.50
2023-04-27T05:19:25.875Z,61.70
2023-04-27T05:22:01.067Z,61.70
2023-04-27T05:24:47.199Z,61.50
2023-04-27T05:27:29.903Z,61.60
2023-04-27T05:32:56.253Z,60.80
2023-04-27T05:35:37.834Z,60.50
2023-04-27T05:38:12.316Z,60.90
2023-04-27T05:40:45.288Z,60.70
2023-04-27T05:43:31.401Z,61.10
2023-04-27T05:46:06.462Z,60.90
2023-04-27T05:48:42.281Z,60.80
2023-04-27T05:51:12.315Z,60.50
2023-04-27T05:53:46.335Z,60.60
2023-04-27T05:56:19.183Z,60.20
2023-04-27T05:58:56.424Z,59.80
2023-04-27T06:01:27.207Z,59.80
2023-04-27T06:04:18.167Z,59.90
2023-04-27T06:06:52.953Z,59.80
2023-04-27T06:09:32.535Z,59.10
2023-04-27T06:12:18.049Z,58.90
2023-04-27T06:14:49.705Z,59.10
2023-04-27T06:17:30.764Z,58.50
2023-04-27T06:20:16.728Z,58.10
2023-04-27T06:23:03.523Z,58.50
2023-04-27T06:25:55.831Z,58.20
2023-04-27T06:28:30.975Z,58.00
2023-04-27T06:31:05.660Z,57.40
2023-04-27T06:33:41.472Z,56.90
2023-04-27T06:36:17.566Z,56.80
2023-04-27T06:38:59.596Z,56.00
2023-04-27T06:41:36.731Z,55.90
2023-04-27T06:44:07.653Z,55.40
2023-04-27T06:46:45.339Z,55.00
2023-04-27T06:49:25.533Z,54.80
2023-04-27T06:51:57.144Z,53.50
2023-04-27T06:54:30.062Z,54.00
2023-04-27T06:57:35.739Z,54.00
2023-04-27T07:00:20.815Z,54.00
2023-04-27T07:02:51.531Z,53.90
2023-04-27T07:05:26.396Z,53.40
2023-04-27T07:08:34.266Z,53.00
2023-04-27T07:11:22.827Z,52.40
2023-04-27T07:13:59.865Z,51.80
2023-04-27T07:20:01.133Z,51.00
2023-04-27T07:22:35.603Z,51.20
2023-04-27T07:25:12.760Z,51.30
2023-04-27T07:27:54.111Z,51.10
2023-04-27T07:30:45.432Z,50.10
2023-04-27T07:33:16.540Z,49.80
2023-04-27T07:36:23.530Z,49.90
2023-04-27T07:41:41.408Z,49.60
2023-04-27T07:47:17.871Z,49.60
2023-04-27T07:51:08.059Z,49.40
2023-04-27T07:57:07.574Z,49.50
2023-04-27T08:03:42.045Z,49.20
2023-04-27T08:06:30.999Z,49.40
2023-04-27T08:09:47.454Z,49.70
2023-04-27T08:17:37.078Z,48.50
2023-04-27T08:20:45.726Z,48.40
2023-04-27T08:34:38.341Z,48.20
2023-04-27T08:37:09.566Z,48.40
2023-04-27T08:39:56.028Z,47.20
2023-04-27T08:42:33.571Z,47.40
2023-04-27T08:45:25.631Z,47.00
2023-04-27T08:48:23.262Z,46.80
2023-04-27T08:51:13.958Z,46.30
2023-04-27T08:54:11.010Z,46.00
2023-04-27T08:56:43.961Z,46.40
2023-04-27T08:59:21.856Z,46.30
2023-04-27T09:02:30.050Z,46.20
2023-04-27T09:05:01.413Z,46.40
2023-04-27T09:13:50.453Z,46.40
2023-04-27T09:16:41.710Z,46.40
2023-04-27T09:19:25.707Z,46.40
2023-04-27T09:25:29.561Z,45.60
2023-04-27T09:28:15.575Z,44.80
2023-04-27T09:31:10.065Z,45.20
2023-04-27T09:34:15.970Z,45.50
2023-04-27T09:37:24.411Z,45.50
2023-04-27T09:46:04.932Z,46.60
2023-04-27T09:51:50.713Z,45.80
2023-04-27T09:58:47.530Z,45.50
2023-04-27T10:05:32.202Z,45.10
2023-04-27T10:15:48.716Z,45.30
2023-04-27T10:18:45.106Z,45.40
2023-04-27T10:25:17.172Z,44.90
2023-04-27T10:28:09.988Z,45.20
2023-04-27T10:31:22.577Z,43.90
2023-04-27T10:40:20.563Z,43.70
2023-04-27T10:44:03.448Z,43.20
2023-04-27T10:46:29.631Z,43.60
2023-04-27T10:49:15.882Z,44.20
2023-04-27T10:51:54.240Z,44.00
2023-04-27T10:57:23.982Z,44.20
2023-04-27T11:00:24.865Z,44.60
2023-04-27T11:03:24.269Z,44.40
2023-04-27T11:06:09.274Z,44.40
2023-04-27T11:19:37.646Z,44.00
2023-04-27T11:22:59.566Z,43.90
2023-04-27T11:28:50.365Z,44.20
2023-04-27T11:32:19.052Z,44.60
2023-04-27T11:35:25.496Z,44.30
2023-04-27T11:38:15.821Z,43.90
2023-04-27T11:41:43.527Z,43.40
2023-04-27T11:44:29.032Z,43.50
2023-04-27T11:51:11.900Z,43.70
2023-04-27T11:54:43.416Z,43.10
2023-04-27T12:00:56.801Z,42.30
2023-04-27T12:04:24.105Z,42.50
2023-04-27T12:07:23.370Z,42.40
2023-04-27T12:17:17.105Z,44.00
2023-04-27T12:20:20.080Z,43.20
2023-04-27T12:23:19.683Z,42.20
2023-04-27T12:26:23.120Z,42.20
2023-04-27T12:29:48.414Z,42.10
2023-04-27T12:35:43.982Z,41.60
2023-04-27T12:42:05.941Z,42.10
2023-04-27T12:44:42.153Z,42.80
2023-04-27T12:47:45.784Z,42.20
2023-04-27T12:50:20.416Z,41.90
2023-04-27T12:52:55.040Z,41.50
2023-04-27T12:55:33.886Z,41.80
2023-04-27T12:58:05.529Z,41.30
2023-04-27T13:00:51.712Z,41.40
2023-04-27T13:03:24.957Z,41.00
2023-04-27T13:05:53.136Z,40.90
2023-04-27T13:08:50.768Z,39.70
2023-04-27T13:11:38.083Z,39.80
2023-04-27T13:14:37.899Z,40.10
2023-04-27T13:20:04.236Z,39.70
2023-04-27T13:22:42.205Z,39.90
2023-04-27T13:25:20.771Z,40.00
2023-04-27T13:27:48.666Z,40.20
2023-04-27T13:30:35.687Z,40.30
2023-04-27T13:33:23.853Z,39.50
2023-04-27T13:36:00.596Z,39.60
2023-04-27T13:39:11.829Z,39.40
2023-04-27T13:41:48.108Z,39.40
2023-04-27T13:44:26.574Z,39.40
2023-04-27T13:47:18.258Z,39.80
2023-04-27T13:49:52.830Z,39.40
2023-04-27T13:52:31.487Z,39.30
2023-04-27T13:55:07.357Z,38.60
2023-04-27T13:57:53.313Z,38.40
2023-04-27T14:00:23.134Z,38.50
2023-04-27T14:05:37.736Z,38.90
2023-04-27T14:08:34.948Z,39.00
2023-04-27T14:11:13.346Z,38.90
2023-04-27T14:14:07.563Z,38.20
2023-04-27T14:16:35.125Z,38.60
2023-04-27T14:19:02.755Z,38.90
2023-04-27T14:21:32.965Z,39.40
2023-04-27T14:24:11.280Z,39.60
2023-04-27T14:26:56.467Z,40.10
2023-04-27T14:29:43.991Z,40.30
2023-04-27T14:35:16.508Z,40.80
2023-04-27T14:37:47.548Z,41.00
2023-04-27T14:40:14.443Z,40.60
2023-04-27T14:42:41.499Z,39.60
2023-04-27T14:45:09.001Z,40.10
2023-04-27T14:47:35.942Z,40.90
2023-04-27T14:50:03.441Z,41.40
2023-04-27T14:52:30.385Z,41.80
2023-04-27T14:54:57.380Z,41.90
2023-04-27T14:57:24.248Z,41.80
2023-04-27T14:59:51.086Z,41.70
2023-04-27T15:02:18.753Z,41.80
2023-04-27T15:04:45.757Z,42.10
2023-04-27T15:07:12.699Z,42.30
2023-04-27T15:09:39.578Z,42.30
2023-04-27T15:12:07.932Z,42.40
2023-04-27T15:14:34.796Z,42.20
2023-04-27T15:17:01.683Z,41.70
2023-04-27T15:19:28.626Z,41.90
2023-04-27T15:21:55.439Z,42.00
2023-04-27T15:24:22.335Z,42.50
2023-04-27T15:26:49.305Z,42.70
2023-04-27T15:29:17.043Z,43.00
2023-04-27T15:31:44.141Z,43.20
2023-04-27T15:34:11.063Z,43.00
2023-04-27T15:36:37.939Z,42.40
2023-04-27T15:39:04.777Z,41.90
2023-04-27T15:41:32.197Z,41.00
2023-04-27T15:43:59.015Z,40.80
2023-04-27T15:46:26.166Z,41.00
2023-04-27T15:48:53.053Z,41.00
2023-04-27T15:51:19.948Z,40.90
2023-04-27T15:53:46.831Z,41.00
2023-04-27T15:56:13.720Z,41.20
2023-04-27T15:58:40.638Z,41.20
2023-04-27T16:01:07.704Z,41.40
2023-04-27T16:03:34.789Z,41.90
2023-04-27T16:06:01.832Z,42.20
2023-04-27T16:08:28.949Z,41.00
2023-04-27T16:10:56.147Z,40.70
2023-04-27T16:13:23.820Z,40.40
2023-04-27T16:15:50.714Z,40.10
2023-04-27T16:18:17.579Z,39.60
2023-04-27T16:20:44.711Z,39.50
2023-04-27T16:23:11.721Z,39.30
2023-04-27T16:25:38.631Z,38.80
2023-04-27T16:28:05.703Z,38.10
2023-04-27T16:30:32.708Z,37.80
2023-04-27T16:32:59.587Z,38.10
2023-04-27T16:35:26.501Z,37.70
2023-04-27T16:37:54.452Z,38.10
2023-04-27T16:40:21.368Z,38.50
2023-04-27T16:42:48.202Z,38.50
2023-04-27T16:45:15.145Z,38.80
2023-04-27T16:47:42.501Z,38.90
2023-04-27T16:50:09.848Z,39.00
2023-04-27T16:52:37.056Z,39.30
2023-04-27T16:55:09.990Z,39.40
2023-04-27T16:57:37.097Z,39.80
2023-04-27T17:00:09.736Z,40.10
2023-04-27T17:02:36.779Z,40.80
2023-04-27T17:05:04.005Z,41.00
2023-04-27T17:07:32.824Z,41.00
2023-04-27T17:09:59.983Z,41.00
2023-04-27T17:12:26.959Z,41.50
2023-04-27T17:14:53.916Z,42.00
2023-04-27T17:17:21.181Z,42.50
2023-04-27T17:19:48.002Z,42.40
2023-04-27T17:22:15.038Z,42.20
2023-04-27T17:24:41.999Z,43.00
2023-04-27T17:27:09.040Z,43.00
2023-04-27T17:29:36.177Z,43.20
2023-04-27T17:32:04.470Z,43.50
2023-04-27T17:34:31.577Z,43.50
2023-04-27T17:36:58.559Z,43.60
2023-04-27T17:39:25.563Z,44.50
2023-04-27T17:41:52.493Z,44.20
2023-04-27T17:44:19.391Z,44.50
2023-04-27T17:46:47.381Z,44.70
2023-04-27T17:49:16.241Z,45.50
2023-04-27T17:51:43.901Z,45.80
2023-04-27T17:54:11.533Z,45.50
2023-04-27T17:56:39.355Z,46.00
2023-04-27T17:59:09.991Z,45.90
2023-04-27T18:01:37.069Z,46.30
2023-04-27T18:04:06.511Z,46.60
2023-04-27T18:06:33.873Z,47.00
2023-04-27T18:09:01.356Z,47.60
2023-04-27T18:11:28.766Z,48.20
2023-04-27T18:13:57.868Z,48.60
2023-04-27T18:16:25.180Z,48.90
2023-04-27T18:18:52.126Z,48.90
2023-04-27T18:21:19.036Z,49.00
2023-04-27T18:23:46.047Z,49.30
2023-04-27T18:26:13.164Z,49.10
2023-04-27T18:28:41.758Z,49.60
2023-04-27T18:31:16.666Z,49.60
2023-04-27T18:33:47.196Z,49.80
2023-04-27T18:36:14.211Z,50.10
2023-04-27T18:38:41.132Z,50.20
2023-04-27T18:41:08.214Z,50.30
2023-04-27T18:43:38.589Z,50.30
2023-04-27T18:46:05.580Z,49.90
2023-04-27T18:48:32.662Z,50.00
2023-04-27T18:50:59.609Z,49.80
2023-04-27T18:53:27.507Z,49.90
2023-04-27T18:55:54.424Z,50.30
2023-04-27T18:58:21.531Z,50.60
2023-04-27T19:00:48.458Z,50.70
2023-04-27T19:03:15.706Z,51.10
2023-04-27T19:05:43.179Z,51.00
2023-04-27T19:08:10.452Z,50.60
2023-04-27T19:10:37.503Z,51.20
2023-04-27T19:13:04.336Z,51.20
2023-04-27T19:15:31.349Z,51.60
2023-04-27T19:18:09.367Z,51.70
2023-04-27T19:20:38.085Z,52.00
2023-04-27T19:23:05.293Z,52.00
2023-04-27T19:25:32.270Z,52.10
2023-04-27T19:27:59.260Z,52.20
2023-04-27T19:30:26.294Z,52.10
2023-04-27T19:32:53.306Z,52.20
2023-04-27T19:35:23.206Z,52.30
2023-04-27T19:37:50.883Z,52.30
2023-04-27T19:40:18.257Z,52.50
2023-04-27T19:42:45.517Z,52.40
2023-04-27T19:45:12.546Z,52.40
2023-04-27T19:47:39.852Z,52.20
2023-04-27T19:50:07.146Z,52.10
2023-04-27T19:52:34.182Z,52.20
2023-04-27T19:55:01.077Z,51.90
2023-04-27T19:57:28.122Z,52.10
2023-04-27T19:59:54.954Z,52.40
2023-04-27T20:02:21.960Z,52.10
2023-04-27T20:04:49.246Z,52.30
2023-04-27T20:07:16.543Z,52.60
2023-04-27T20:09:43.680Z,53.00
2023-04-27T20:12:23.715Z,53.50
2023-04-27T20:14:57.644Z,53.50
2023-04-27T20:17:27.358Z,53.90
2023-04-27T20:19:56.202Z,54.20
2023-04-27T20:22:23.432Z,54.20
2023-04-27T20:24:50.555Z,54.40
2023-04-27T20:27:17.370Z,54.60
2023-04-27T20:29:46.499Z,54.70
2023-04-27T20:32:13.670Z,54.30
2023-04-27T20:34:40.675Z,54.20
2023-04-27T20:37:16.112Z,53.90
2023-04-27T20:39:58.685Z,53.50
2023-04-27T20:42:39.258Z,53.60
2023-04-27T20:45:11.865Z,53.70
2023-04-27T20:47:42.725Z,53.90
2023-04-27T20:50:15.960Z,54.20
2023-04-27T20:52:50.040Z,54.20
2023-04-27T20:55:38.868Z,54.30
2023-04-27T20:58:30.473Z,54.60
2023-04-27T21:01:09.336Z,54.00
2023-04-27T21:03:49.578Z,54.60
2023-04-27T21:06:49.076Z,54.70
2023-04-27T21:09:36.186Z,55.30
2023-04-27T21:12:28.928Z,55.00
2023-04-27T21:15:17.152Z,55.00
2023-04-27T21:18:13.507Z,55.30
2023-04-27T21:20:57.085Z,55.00
2023-04-27T21:23:28.367Z,55.10
2023-04-27T21:26:16.992Z,55.30
2023-04-27T21:28:55.469Z,55.40
2023-04-27T21:31:36.573Z,55.50
2023-04-27T21:34:15.067Z,55.70
2023-04-27T21:36:48.805Z,55.90
2023-04-27T21:39:25.578Z,56.00
2023-04-27T21:42:04.143Z,56.20
2023-04-27T21:44:42.108Z,56.20
2023-04-27T21:47:19.566Z,56.30
2023-04-27T21:49:51.871Z,56.40
2023-04-27T21:52:28.271Z,56.60
2023-04-27T21:54:59.526Z,56.60
2023-04-27T21:57:30.089Z,56.30
2023-04-27T22:00:00.300Z,56.90
2023-04-27T22:02:30.119Z,56.30
2023-04-27T22:05:05.011Z,56.70
2023-04-27T22:07:37.070Z,56.70
2023-04-27T22:10:14.764Z,56.70
2023-04-27T22:12:47.629Z,56.60
2023-04-27T22:15:17.268Z,56.60
2023-04-27T22:17:49.377Z,56.90
2023-04-27T22:20:17.801Z,57.10
2023-04-27T22:22:52.915Z,57.30
2023-04-27T22:25:38.578Z,57.20
2023-04-27T22:28:10.947Z,56.90
2023-04-27T22:31:05.542Z,56.90
2023-04-27T22:33:39.604Z,57.10
2023-04-27T22:39:06.021Z,57.10
2023-04-27T22:41:38.951Z,57.10
2023-04-27T22:44:11.515Z,57.30
2023-04-27T22:46:52.969Z,57.30
2023-04-27T22:49:40.250Z,57.40
2023-04-27T22:52:14.562Z,57.30
2023-04-27T22:57:50.772Z,57.60
2023-04-27T23:00:21.046Z,57.90
2023-04-27T23:03:03.406Z,57.90
2023-04-27T23:06:00.767Z,58.00
2023-04-27T23:08:46.116Z,58.00
2023-04-27T23:11:48.708Z,57.90
2023-04-27T23:14:27.316Z,58.10
2023-04-27T23:16:56.513Z,58.00
2023-04-27T23:19:23.566Z,58.00
2023-04-27T23:22:04.967Z,57.70
2023-04-27T23:24:45.301Z,58.10
2023-04-27T23:27:21.660Z,58.40
2023-04-27T23:29:55.910Z,58.30
2023-04-27T23:32:39.902Z,58.40
2023-04-27T23:35:18.205Z,58.50
2023-04-27T23:38:02.596Z,58.50
2023-04-27T23:40:39.468Z,58.50
2023-04-27T23:43:12.444Z,58.60
2023-04-27T23:45:43.970Z,58.60
2023-04-27T23:48:22.625Z,58.50
2023-04-27T23:54:34.660Z,58.70
2023-04-27T23:57:22.939Z,58.80
